createdAt,value
2023-05-15T00:00:49.723Z,98262.09
2023-05-15T00:03:16.417Z,98256.66
2023-05-15T00:05:43.258Z,98250.41
2023-05-15T00:08:10.031Z,98251.25
2023-05-15T00:10:36.804Z,98255.56
2023-05-15T00:13:03.786Z,98258.25
2023-05-15T00:15:30.421Z,98258.25
2023-05-15T00:17:56.953Z,98257.22
2023-05-15T00:20:23.527Z,98254.56
2023-05-15T00:22:49.983Z,98258.38
2023-05-15T00:25:16.685Z,98254.03
2023-05-15T00:27:43.190Z,98255.09
2023-05-15T00:30:10.074Z,98264.31
2023-05-15T00:32:36.627Z,98265.69
2023-05-15T00:35:03.274Z,98260.09
2023-05-15T00:37:29.706Z,98256.34
2023-05-15T00:39:56.188Z,98254.44
2023-05-15T00:42:23.955Z,98256.09
2023-05-15T00:44:52.504Z,98251.25
2023-05-15T00:47:21.097Z,98256.34
2023-05-15T00:49:49.302Z,98242.88
2023-05-15T00:52:15.855Z,98245.63
2023-05-15T00:54:42.402Z,98238.56
2023-05-15T00:57:10.460Z,98228.53
2023-05-15T00:59:39.948Z,98232.81
2023-05-15T01:02:06.514Z,98227.69
2023-05-15T01:04:33.053Z,98237.94
2023-05-15T01:06:59.576Z,98236.31
2023-05-15T01:09:30.036Z,98229.22
2023-05-15T01:12:00.174Z,98232.72
2023-05-15T01:14:27.500Z,98232.44
2023-05-15T01:16:54.085Z,98230.78
2023-05-15T01:19:20.759Z,98228.34
2023-05-15T01:22:12.348Z,98232.72
2023-05-15T01:24:51.141Z,98223.03
2023-05-15T01:27:37.251Z,98220.25
2023-05-15T01:30:08.128Z,98215.63
2023-05-15T01:32:59.813Z,98213.97
2023-05-15T01:35:32.441Z,98207.53
2023-05-15T01:38:11.645Z,98211.84
2023-05-15T01:40:38.602Z,98210.25
2023-05-15T01:43:11.573Z,98208.63
2023-05-15T01:45:41.599Z,98208.31
2023-05-15T01:48:09.161Z,98212.94
2023-05-15T01:50:38.569Z,98210.22
2023-05-15T01:53:07.169Z,98216.13
2023-05-15T01:55:35.010Z,98218.19
2023-05-15T01:58:02.864Z,98222.41
2023-05-15T02:00:30.024Z,98219.38
2023-05-15T02:02:58.498Z,98211.16
2023-05-15T02:05:26.772Z,98217.44
2023-05-15T02:07:54.199Z,98212.88
2023-05-15T02:10:22.296Z,98203.00
2023-05-15T02:12:50.149Z,98208.31
2023-05-15T02:15:18.549Z,98205.28
2023-05-15T02:17:45.153Z,98209.47
2023-05-15T02:20:11.918Z,98207.59
2023-05-15T02:22:38.447Z,98208.91
2023-05-15T02:25:05.411Z,98205.56
2023-05-15T02:27:57.436Z,98202.94
2023-05-15T02:30:30.121Z,98208.13
2023-05-15T02:33:12.488Z,98209.44
2023-05-15T02:35:59.480Z,98212.34
2023-05-15T02:38:31.349Z,98210.97
2023-05-15T02:40:58.802Z,98213.66
2023-05-15T02:43:26.657Z,98211.00
2023-05-15T02:45:54.247Z,98217.72
2023-05-15T02:48:21.899Z,98226.16
2023-05-15T02:50:48.404Z,98218.56
2023-05-15T02:53:16.123Z,98223.75
2023-05-15T02:55:42.647Z,98213.50
2023-05-15T02:58:09.730Z,98217.25
2023-05-15T03:00:36.221Z,98218.88
2023-05-15T03:03:02.769Z,98217.81
2023-05-15T03:05:29.351Z,98212.13
2023-05-15T03:07:57.632Z,98211.06
2023-05-15T03:10:24.332Z,98210.03
2023-05-15T03:12:50.905Z,98214.69
2023-05-15T03:15:17.973Z,98208.31
2023-05-15T03:17:44.832Z,98219.56
2023-05-15T03:20:11.523Z,98219.56
2023-05-15T03:22:38.013Z,98221.72
2023-05-15T03:25:04.828Z,98215.41
2023-05-15T03:27:31.286Z,98219.38
2023-05-15T03:29:58.223Z,98222.88
2023-05-15T03:32:24.739Z,98216.34
2023-05-15T03:34:51.213Z,98222.81
2023-05-15T03:37:17.723Z,98214.28
2023-05-15T03:39:44.310Z,98225.06
2023-05-15T03:42:10.831Z,98221.13
2023-05-15T03:44:37.381Z,98218.75
2023-05-15T03:47:04.200Z,98216.69
2023-05-15T03:49:30.741Z,98213.72
2023-05-15T03:51:57.765Z,98222.53
2023-05-15T03:54:24.316Z,98212.63
2023-05-15T03:56:50.864Z,98215.84
2023-05-15T03:59:17.323Z,98213.22
2023-05-15T04:01:59.361Z,98215.31
2023-05-15T04:04:30.285Z,98212.63
2023-05-15T04:06:56.733Z,98214.19
2023-05-15T04:09:23.268Z,98209.78
2023-05-15T04:11:49.887Z,98205.44
2023-05-15T04:14:16.477Z,98205.44
2023-05-15T04:16:42.976Z,98195.19
2023-05-15T04:19:09.997Z,98204.34
2023-05-15T04:21:36.599Z,98191.34
2023-05-15T04:24:03.221Z,98206.78
2023-05-15T04:26:29.836Z,98209.78
2023-05-15T04:31:29.613Z,98219.03
2023-05-15T04:33:56.130Z,98221.66
2023-05-15T04:36:22.901Z,98223.03
2023-05-15T04:38:49.395Z,98222.75
2023-05-15T04:41:15.948Z,98222.88
2023-05-15T04:43:42.499Z,98230.81
2023-05-15T04:46:09.048Z,98236.84
2023-05-15T04:48:35.576Z,98239.31
2023-05-15T04:51:02.051Z,98243.38
2023-05-15T04:53:28.558Z,98254.72
2023-05-15T04:55:55.112Z,98251.03
2023-05-15T04:58:21.619Z,98255.94
2023-05-15T05:00:48.148Z,98248.66
2023-05-15T05:03:14.870Z,98247.09
2023-05-15T05:05:41.394Z,98252.50
2023-05-15T05:08:07.887Z,98251.16
2023-05-15T05:10:34.349Z,98251.25
2023-05-15T05:13:00.840Z,98262.09
2023-05-15T05:15:27.439Z,98256.75
2023-05-15T05:17:54.159Z,98254.69
2023-05-15T05:20:20.838Z,98252.03
2023-05-15T05:22:47.345Z,98259.34
2023-05-15T05:25:13.951Z,98250.69
2023-05-15T05:27:40.423Z,98247.75
2023-05-15T05:30:08.658Z,98245.63
2023-05-15T05:32:35.315Z,98247.50
2023-05-15T05:35:01.917Z,98251.03
2023-05-15T05:37:28.406Z,98244.31
2023-05-15T05:39:54.904Z,98247.03
2023-05-15T05:42:21.413Z,98233.63
2023-05-15T05:44:47.852Z,98240.63
2023-05-15T05:47:14.687Z,98233.91
2023-05-15T05:49:41.354Z,98229.34
2023-05-15T05:52:08.285Z,98236.66
2023-05-15T05:54:34.904Z,98228.84
2023-05-15T05:57:01.428Z,98230.19
2023-05-15T05:59:29.215Z,98233.94
2023-05-15T06:01:55.976Z,98234.50
2023-05-15T06:04:22.626Z,98246.13
2023-05-15T06:06:50.233Z,98247.41
2023-05-15T06:09:16.925Z,98241.50
2023-05-15T06:11:43.749Z,98245.53
2023-05-15T06:14:10.286Z,98248.00
2023-05-15T06:16:36.770Z,98248.81
2023-05-15T06:19:03.356Z,98252.88
2023-05-15T06:21:29.903Z,98251.53
2023-05-15T06:23:56.468Z,98249.66
2023-05-15T06:26:22.995Z,98257.75
2023-05-15T06:28:49.523Z,98249.91
2023-05-15T06:31:17.396Z,98254.50
2023-05-15T06:33:44.005Z,98254.50
2023-05-15T06:36:10.609Z,98256.66
2023-05-15T06:38:37.071Z,98256.41
2023-05-15T06:41:03.929Z,98256.94
2023-05-15T06:43:30.620Z,98256.66
2023-05-15T06:45:57.085Z,98254.75
2023-05-15T06:48:23.607Z,98255.31
2023-05-15T06:50:50.310Z,98254.75
2023-05-15T06:53:17.820Z,98246.63
2023-05-15T06:55:44.314Z,98256.94
2023-05-15T06:58:10.789Z,98256.66
2023-05-15T07:00:37.309Z,98257.97
2023-05-15T07:03:03.998Z,98256.66
2023-05-15T07:05:30.774Z,98253.41
2023-05-15T07:07:57.346Z,98253.34
2023-05-15T07:10:24.052Z,98256.56
2023-05-15T07:12:50.757Z,98251.72
2023-05-15T07:15:17.692Z,98241.97
2023-05-15T07:17:44.372Z,98249.03
2023-05-15T07:20:11.254Z,98247.63
2023-05-15T07:22:48.080Z,98251.41
2023-05-15T07:25:22.005Z,98248.16
2023-05-15T07:27:48.545Z,98247.09
2023-05-15T07:30:15.296Z,98247.63
2023-05-15T07:32:41.775Z,98248.69
2023-05-15T07:35:08.761Z,98254.84
2023-05-15T07:37:35.246Z,98256.81
2023-05-15T07:40:01.893Z,98253.31
2023-05-15T07:42:28.357Z,98253.31
2023-05-15T07:44:54.820Z,98258.97
2023-05-15T07:47:21.576Z,98259.75
2023-05-15T07:49:48.163Z,98263.75
2023-05-15T07:52:14.708Z,98260.22
2023-05-15T07:54:42.189Z,98255.22
2023-05-15T07:57:09.582Z,98252.19
2023-05-15T07:59:36.672Z,98253.50
2023-05-15T08:02:03.329Z,98258.28
2023-05-15T08:04:29.945Z,98249.56
2023-05-15T08:06:56.775Z,98245.09
2023-05-15T08:09:23.317Z,98252.97
2023-05-15T08:11:49.809Z,98252.03
2023-05-15T08:14:16.426Z,98257.09
2023-05-15T08:16:43.010Z,98257.56
2023-05-15T08:19:10.317Z,98255.28
2023-05-15T08:21:36.927Z,98256.69
2023-05-15T08:24:03.600Z,98255.75
2023-05-15T08:26:30.165Z,98252.34
2023-05-15T08:28:56.664Z,98257.94
2023-05-15T08:31:23.130Z,98247.00
2023-05-15T08:33:49.613Z,98245.63
2023-05-15T08:36:18.281Z,98242.94
2023-05-15T08:38:44.949Z,98245.63
2023-05-15T08:41:38.831Z,98240.53
2023-05-15T08:44:09.287Z,98237.50
2023-05-15T08:46:36.430Z,98239.69
2023-05-15T08:49:11.608Z,98233.22
2023-05-15T08:51:39.335Z,98233.19
2023-05-15T08:54:06.404Z,98228.22
2023-05-15T08:56:33.010Z,98233.53
2023-05-15T08:58:59.660Z,98229.53
2023-05-15T09:01:28.139Z,98230.34
2023-05-15T09:03:54.731Z,98223.91
2023-05-15T09:06:22.538Z,98219.00
2023-05-15T09:08:50.392Z,98225.88
2023-05-15T09:11:17.047Z,98222.38
2023-05-15T09:13:43.525Z,98209.47
2023-05-15T09:16:10.171Z,98206.66
2023-05-15T09:18:38.833Z,98208.16
2023-05-15T09:21:25.759Z,98208.03
2023-05-15T09:24:24.725Z,98204.72
2023-05-15T09:27:05.032Z,98200.66
2023-05-15T09:29:32.578Z,98208.94
2023-05-15T09:32:07.117Z,98210.50
2023-05-15T09:34:35.737Z,98199.81
2023-05-15T09:37:04.516Z,98197.13
2023-05-15T09:39:31.074Z,98193.88
2023-05-15T09:42:06.951Z,98194.03
2023-05-15T09:44:34.492Z,98198.34
2023-05-15T09:47:01.679Z,98196.66
2023-05-15T09:49:31.041Z,98187.09
2023-05-15T09:52:00.422Z,98186.88
2023-05-15T09:54:27.968Z,98182.31
2023-05-15T09:56:54.438Z,98184.03
2023-05-15T09:59:24.379Z,98188.38
2023-05-15T10:01:52.674Z,98177.63
2023-05-15T10:04:19.178Z,98180.94
2023-05-15T10:06:47.541Z,98181.25
2023-05-15T10:09:15.214Z,98179.50
2023-05-15T10:11:44.431Z,98184.25
2023-05-15T10:14:14.069Z,98177.56
2023-05-15T10:16:41.306Z,98182.59
2023-05-15T10:19:12.895Z,98181.88
2023-05-15T10:21:41.581Z,98182.59
2023-05-15T10:24:08.855Z,98170.72
2023-05-15T10:26:40.884Z,98166.09
2023-05-15T10:29:09.386Z,98164.94
2023-05-15T10:31:36.554Z,98162.97
2023-05-15T10:34:05.220Z,98156.56
2023-05-15T10:36:33.757Z,98160.06
2023-05-15T10:39:02.355Z,98147.88
2023-05-15T10:41:32.559Z,98143.78
2023-05-15T10:44:00.288Z,98133.59
2023-05-15T10:46:29.030Z,98140.78
2023-05-15T10:48:55.904Z,98140.78
2023-05-15T10:51:27.653Z,98129.06
2023-05-15T10:53:55.787Z,98113.31
2023-05-15T10:56:37.540Z,98111.34
2023-05-15T10:59:08.528Z,98098.34
2023-05-15T11:01:37.679Z,98093.47
2023-05-15T11:04:09.647Z,98104.13
2023-05-15T11:06:37.996Z,98098.19
2023-05-15T11:09:25.863Z,98101.25
2023-05-15T11:11:57.188Z,98095.63
2023-05-15T11:14:25.863Z,98088.47
2023-05-15T11:16:55.400Z,98090.31
2023-05-15T11:19:51.462Z,98076.31
2023-05-15T11:22:26.370Z,98083.97
2023-05-15T11:24:58.788Z,98083.00
2023-05-15T11:27:30.311Z,98077.94
2023-05-15T11:30:06.865Z,98077.84
2023-05-15T11:32:49.414Z,98075.16
2023-05-15T11:35:21.910Z,98070.06
2023-05-15T11:37:57.665Z,98070.25
2023-05-15T11:40:29.656Z,98069.84
2023-05-15T11:43:03.533Z,98068.69
2023-05-15T11:45:31.619Z,98057.38
2023-05-15T11:48:01.298Z,98064.81
2023-05-15T11:50:28.466Z,98066.88
2023-05-15T11:52:55.516Z,98060.50
2023-05-15T11:55:23.193Z,98064.78
2023-05-15T11:57:51.165Z,98059.13
2023-05-15T12:00:17.834Z,98051.47
2023-05-15T12:02:44.545Z,98052.91
2023-05-15T12:05:12.030Z,98058.59
2023-05-15T12:07:41.588Z,98051.16
2023-05-15T12:10:13.203Z,98049.00
2023-05-15T12:12:41.518Z,98051.09
2023-05-15T12:15:12.243Z,98051.41
2023-05-15T12:17:42.611Z,98048.31
2023-05-15T12:20:12.420Z,98048.19
2023-05-15T12:22:39.426Z,98041.34
2023-05-15T12:25:07.727Z,98036.66
2023-05-15T12:27:36.395Z,98030.34
2023-05-15T12:30:04.281Z,98035.16
2023-05-15T12:32:33.456Z,98030.47
2023-05-15T12:35:01.112Z,98025.47
2023-05-15T12:37:30.844Z,98027.06
2023-05-15T12:40:00.715Z,98033.03
2023-05-15T12:42:27.253Z,98041.66
2023-05-15T12:44:56.047Z,98033.19
2023-05-15T12:47:24.572Z,98047.88
2023-05-15T12:49:55.327Z,98063.84
2023-05-15T12:52:22.025Z,98059.75
2023-05-15T12:54:48.533Z,98054.69
2023-05-15T12:57:15.159Z,98065.53
2023-05-15T12:59:41.887Z,98057.53
2023-05-15T13:02:13.576Z,98054.00
2023-05-15T13:04:40.398Z,98061.75
2023-05-15T13:07:07.088Z,98063.16
2023-05-15T13:09:35.434Z,98060.84
2023-05-15T13:12:03.895Z,98062.00
2023-05-15T13:14:33.740Z,98054.50
2023-05-15T13:17:02.961Z,98080.16
2023-05-15T13:19:29.804Z,98073.88
2023-05-15T13:21:57.126Z,98083.28
2023-05-15T13:24:23.691Z,98089.09
2023-05-15T13:26:50.282Z,98082.91
2023-05-15T13:29:16.836Z,98083.81
2023-05-15T13:31:43.372Z,98082.63
2023-05-15T13:34:09.903Z,98079.88
2023-05-15T13:36:36.417Z,98082.31
2023-05-15T13:39:03.795Z,98076.44
2023-05-15T13:41:30.347Z,98075.56
2023-05-15T13:43:57.030Z,98068.78
2023-05-15T13:46:23.712Z,98072.56
2023-05-15T13:48:50.779Z,98072.97
2023-05-15T13:51:17.404Z,98073.84
2023-05-15T13:53:43.926Z,98079.13
2023-05-15T13:56:10.515Z,98077.56
2023-05-15T13:58:37.096Z,98064.97
2023-05-15T14:01:07.147Z,98059.59
2023-05-15T14:03:34.482Z,98060.53
2023-05-15T14:06:01.032Z,98061.88
2023-05-15T14:08:27.519Z,98062.66
2023-05-15T14:10:53.991Z,98058.44
2023-05-15T14:13:20.530Z,98061.34
2023-05-15T14:15:47.085Z,98059.94
2023-05-15T14:18:13.599Z,98063.47
2023-05-15T14:20:40.235Z,98065.16
2023-05-15T14:23:06.773Z,98076.72
2023-05-15T14:25:33.317Z,98073.88
2023-05-15T14:27:59.820Z,98072.72
2023-05-15T14:30:26.540Z,98070.94
2023-05-15T14:32:53.275Z,98079.47
2023-05-15T14:35:20.101Z,98080.59
2023-05-15T14:37:46.693Z,98072.22
2023-05-15T14:40:13.459Z,98067.25
2023-05-15T14:42:40.478Z,98068.88
2023-05-15T14:45:07.896Z,98074.97
2023-05-15T14:47:34.382Z,98067.88
2023-05-15T14:50:00.904Z,98071.91
2023-05-15T14:52:27.414Z,98064.69
2023-05-15T14:55:07.737Z,98065.19
2023-05-15T14:57:35.068Z,98070.31
2023-05-15T15:00:01.616Z,98071.91
2023-05-15T15:02:28.281Z,98063.22
2023-05-15T15:04:54.885Z,98072.88
2023-05-15T15:07:21.418Z,98068.22
2023-05-15T15:09:47.884Z,98071.44
2023-05-15T15:12:14.411Z,98068.53
2023-05-15T15:14:40.872Z,98069.03
2023-05-15T15:17:07.339Z,98069.69
2023-05-15T15:19:34.060Z,98067.09
2023-05-15T15:22:00.692Z,98064.22
2023-05-15T15:24:28.445Z,98068.25
2023-05-15T15:26:54.909Z,98078.03
2023-05-15T15:29:21.322Z,98083.00
2023-05-15T15:31:47.914Z,98077.53
2023-05-15T15:34:14.495Z,98085.41
2023-05-15T15:36:41.519Z,98084.94
2023-05-15T15:39:08.094Z,98084.75
2023-05-15T15:41:37.628Z,98081.22
2023-05-15T15:44:04.207Z,98091.19
2023-05-15T15:46:30.760Z,98090.84
2023-05-15T15:48:57.262Z,98097.59
2023-05-15T15:51:23.765Z,98089.56
2023-05-15T15:53:50.363Z,98100.28
2023-05-15T15:56:16.834Z,98101.91
2023-05-15T15:58:43.306Z,98109.94
2023-05-15T16:01:09.951Z,98108.63
2023-05-15T16:03:36.522Z,98109.63
2023-05-15T16:06:03.045Z,98108.03
2023-05-15T16:08:29.571Z,98114.75
2023-05-15T16:10:56.170Z,98110.34
2023-05-15T16:13:22.666Z,98118.72
2023-05-15T16:15:49.262Z,98128.81
2023-05-15T16:18:15.771Z,98129.34
2023-05-15T16:20:42.279Z,98128.91
2023-05-15T16:23:11.615Z,98128.88
2023-05-15T16:25:38.257Z,98132.56
2023-05-15T16:28:04.761Z,98137.06
2023-05-15T16:30:47.173Z,98135.06
2023-05-15T16:33:14.394Z,98125.50
2023-05-15T16:35:40.892Z,98126.34
2023-05-15T16:38:07.364Z,98130.56
2023-05-15T16:40:33.807Z,98125.59
2023-05-15T16:43:00.287Z,98125.06
2023-05-15T16:45:26.884Z,98128.41
2023-05-15T16:47:53.378Z,98127.16
2023-05-15T16:50:20.174Z,98126.78
2023-05-15T16:52:48.133Z,98126.69
2023-05-15T16:55:16.884Z,98119.94
2023-05-15T16:57:45.294Z,98126.44
2023-05-15T17:00:13.439Z,98136.88
2023-05-15T17:02:41.815Z,98136.47
2023-05-15T17:05:09.655Z,98138.91
2023-05-15T17:07:37.874Z,98125.19
2023-05-15T17:10:05.818Z,98137.59
2023-05-15T17:12:32.479Z,98134.94
2023-05-15T17:14:58.955Z,98132.53
2023-05-15T17:17:25.805Z,98142.81
2023-05-15T17:19:53.068Z,98145.66
2023-05-15T17:22:20.728Z,98148.84
2023-05-15T17:24:51.789Z,98145.41
2023-05-15T17:27:19.150Z,98153.25
2023-05-15T17:29:45.916Z,98153.66
2023-05-15T17:32:12.711Z,98155.81
2023-05-15T17:34:39.399Z,98164.09
2023-05-15T17:37:05.918Z,98172.03
2023-05-15T17:39:32.638Z,98168.41
2023-05-15T17:41:59.289Z,98182.34
2023-05-15T17:44:30.792Z,98179.47
2023-05-15T17:46:58.184Z,98182.28
2023-05-15T17:49:24.900Z,98184.03
2023-05-15T17:51:51.527Z,98177.28
2023-05-15T17:54:18.595Z,98188.34
2023-05-15T17:56:45.363Z,98203.13
2023-05-15T17:59:11.801Z,98202.47
2023-05-15T18:01:38.331Z,98205.22
2023-05-15T18:04:04.982Z,98211.16
2023-05-15T18:06:34.288Z,98226.34
2023-05-15T18:09:01.122Z,98224.28
2023-05-15T18:11:27.732Z,98234.69
2023-05-15T18:13:54.204Z,98249.72
2023-05-15T18:16:21.004Z,98248.44
2023-05-15T18:18:49.319Z,98260.13
2023-05-15T18:21:16.050Z,98258.22
2023-05-15T18:23:42.564Z,98270.81
2023-05-15T18:26:10.428Z,98267.59
2023-05-15T18:28:37.093Z,98269.06
2023-05-15T18:31:03.620Z,98260.31
2023-05-15T18:33:30.228Z,98265.59
2023-05-15T18:35:56.733Z,98266.94
2023-05-15T18:38:23.294Z,98268.28
2023-05-15T18:40:49.844Z,98261.25
2023-05-15T18:43:16.302Z,98268.03
2023-05-15T18:45:42.794Z,98256.31
2023-05-15T18:48:09.287Z,98256.34
2023-05-15T18:50:36.296Z,98263.50
2023-05-15T18:53:03.140Z,98259.75
2023-05-15T18:55:30.137Z,98248.44
2023-05-15T18:57:56.740Z,98253.84
2023-05-15T19:00:37.164Z,98248.19
2023-05-15T19:03:05.759Z,98241.44
2023-05-15T19:05:34.019Z,98242.53
2023-05-15T19:08:01.137Z,98241.75
2023-05-15T19:10:29.474Z,98240.94
2023-05-15T19:12:57.125Z,98246.91
2023-05-15T19:15:24.829Z,98246.59
2023-05-15T19:17:51.889Z,98242.53
2023-05-15T19:20:18.724Z,98242.53
2023-05-15T19:22:45.224Z,98247.69
2023-05-15T19:25:11.775Z,98240.38
2023-05-15T19:27:38.284Z,98243.59
2023-05-15T19:30:07.063Z,98235.78
2023-05-15T19:32:34.346Z,98244.19
2023-05-15T19:35:01.020Z,98246.91
2023-05-15T19:37:27.486Z,98240.13
2023-05-15T19:39:54.235Z,98236.09
2023-05-15T19:42:20.839Z,98243.94
2023-05-15T19:44:47.349Z,98252.56
2023-05-15T19:47:13.838Z,98248.78
2023-05-15T19:49:40.350Z,98255.28
2023-05-15T19:52:07.420Z,98266.63
2023-05-15T19:54:33.922Z,98263.66
2023-05-15T19:57:02.921Z,98256.34
2023-05-15T19:59:29.874Z,98250.41
2023-05-15T20:01:56.612Z,98258.50
2023-05-15T20:04:23.295Z,98252.84
2023-05-15T20:06:49.837Z,98254.75
2023-05-15T20:09:16.319Z,98253.38
2023-05-15T20:11:42.838Z,98251.50
2023-05-15T20:14:09.351Z,98255.03
2023-05-15T20:16:36.436Z,98257.75
2023-05-15T20:19:04.115Z,98255.00
2023-05-15T20:21:31.943Z,98264.75
2023-05-15T20:23:58.477Z,98256.09
2023-05-15T20:26:25.002Z,98253.41
2023-05-15T20:28:51.492Z,98256.13
2023-05-15T20:31:18.232Z,98249.63
2023-05-15T20:33:44.850Z,98249.63
2023-05-15T20:36:11.356Z,98250.16
2023-05-15T20:38:38.598Z,98252.88
2023-05-15T20:41:05.165Z,98254.50
2023-05-15T20:43:31.713Z,98246.38
2023-05-15T20:45:58.186Z,98258.53
2023-05-15T20:48:24.699Z,98265.84
2023-05-15T20:50:53.029Z,98269.09
2023-05-15T20:53:19.512Z,98251.78
2023-05-15T20:55:46.108Z,98264.75
2023-05-15T20:58:12.559Z,98260.44
2023-05-15T21:00:39.064Z,98261.75
2023-05-15T21:03:06.206Z,98258.53
2023-05-15T21:05:32.874Z,98262.56
2023-05-15T21:07:59.506Z,98262.56
2023-05-15T21:10:26.513Z,98262.59
2023-05-15T21:12:53.143Z,98259.34
2023-05-15T21:15:19.700Z,98269.09
2023-05-15T21:17:46.219Z,98258.81
2023-05-15T21:20:12.811Z,98269.63
2023-05-15T21:22:39.234Z,98268.53
2023-05-15T21:25:06.287Z,98268.00
2023-05-15T21:27:32.855Z,98272.84
2023-05-15T21:29:59.435Z,98263.13
2023-05-15T21:32:26.012Z,98266.38
2023-05-15T21:34:52.538Z,98260.97
2023-05-15T21:37:19.280Z,98262.06
2023-05-15T21:39:46.024Z,98258.56
2023-05-15T21:42:12.507Z,98259.91
2023-05-15T21:44:39.034Z,98260.44
2023-05-15T21:47:05.623Z,98263.69
2023-05-15T21:49:32.097Z,98254.22
2023-05-15T21:51:58.960Z,98257.72
2023-05-15T21:54:25.457Z,98255.28
2023-05-15T21:56:51.992Z,98251.25
2023-05-15T21:59:18.462Z,98251.25
2023-05-15T22:01:45.021Z,98250.16
2023-05-15T22:04:11.676Z,98253.13
2023-05-15T22:06:38.184Z,98252.31
2023-05-15T22:09:04.692Z,98251.78
2023-05-15T22:11:31.206Z,98252.84
2023-05-15T22:13:57.678Z,98257.16
2023-05-15T22:16:24.307Z,98240.97
2023-05-15T22:18:51.213Z,98249.59
2023-05-15T22:21:17.731Z,98231.53
2023-05-15T22:23:44.255Z,98238.25
2023-05-15T22:26:10.978Z,98244.72
2023-05-15T22:28:37.447Z,98243.13
2023-05-15T22:31:07.230Z,98254.47
2023-05-15T22:33:33.739Z,98249.59
2023-05-15T22:36:00.378Z,98258.47
2023-05-15T22:38:27.212Z,98257.13
2023-05-15T22:40:53.991Z,98253.88
2023-05-15T22:43:22.538Z,98254.41
2023-05-15T22:45:49.352Z,98252.56
2023-05-15T22:48:15.945Z,98259.00
2023-05-15T22:50:43.750Z,98254.66
2023-05-15T22:53:10.478Z,98253.84
2023-05-15T22:55:37.301Z,98252.78
2023-05-15T22:58:04.114Z,98253.31
2023-05-15T23:00:31.038Z,98250.66
2023-05-15T23:02:58.019Z,98257.63
2023-05-15T23:05:25.825Z,98256.84
2023-05-15T23:07:52.768Z,98249.00
2023-05-15T23:10:19.575Z,98250.56
2023-05-15T23:12:46.295Z,98253.47
2023-05-15T23:15:13.796Z,98248.91
2023-05-15T23:17:40.534Z,98248.09
2023-05-15T23:20:10.475Z,98237.00
2023-05-15T23:22:37.107Z,98240.06
2023-05-15T23:25:03.968Z,98238.66
2023-05-15T23:27:30.503Z,98236.72
2023-05-15T23:29:57.033Z,98236.75
2023-05-15T23:32:23.586Z,98230.81
2023-05-15T23:34:50.813Z,98234.84
2023-05-15T23:37:17.400Z,98240.22
2023-05-15T23:39:43.860Z,98240.78
2023-05-15T23:42:12.297Z,98236.50
2023-05-15T23:44:38.868Z,98227.38
2023-05-15T23:47:05.580Z,98220.94
2023-05-15T23:49:33.533Z,98218.50
2023-05-15T23:52:00.111Z,98220.69
2023-05-15T23:54:26.669Z,98220.38
2023-05-15T23:56:53.298Z,98219.63
2023-05-15T23:59:19.774Z,98217.44
